Time;durP1;ratioP1;P1;durP2;ratioP2;P2;SDS_P1;SDS_P2;PMS_P1;PMS_P2;Temp;Humidity;BMP_temperature;BMP_pressure;BME280_temperature;BME280_humidity;BME280_pressure;Samples;Min_cycle;Max_cycle;Signal;HPM_P1;HPM_P2
2023/05/15 00:00:01;;;;;;;6.33;3.80;;;12.80;99.90;;;;;;5098719;28;20201;-63
2023/05/15 00:02:28;;;;;;;5.67;3.67;;;12.70;99.90;;;;;;5099124;28;20607;-63
2023/05/15 00:04:55;;;;;;;3.50;3.17;;;12.70;99.90;;;;;;5098486;28;20626;-63
2023/05/15 00:07:22;;;;;;;4.23;3.70;;;12.60;99.90;;;;;;5098691;28;20218;-63
2023/05/15 00:09:49;;;;;;;3.87;3.30;;;12.50;99.90;;;;;;5098681;28;20220;-62
2023/05/15 00:12:17;;;;;;;4.03;3.30;;;12.50;99.90;;;;;;5098343;28;20738;-62
2023/05/15 00:14:44;;;;;;;5.07;3.50;;;12.50;99.90;;;;;;5098504;28;20278;-64
2023/05/15 00:17:12;;;;;;;3.30;3.00;;;12.40;99.90;;;;;;5098264;28;20204;-62
2023/05/15 00:19:39;;;;;;;3.53;3.23;;;12.30;99.90;;;;;;5098701;28;20207;-63
2023/05/15 00:22:06;;;;;;;4.13;3.57;;;12.30;99.90;;;;;;5098894;28;20315;-63
2023/05/15 00:24:33;;;;;;;9.33;3.90;;;12.30;99.90;;;;;;5098598;28;20269;-62
2023/05/15 00:27:01;;;;;;;5.10;3.53;;;12.30;99.90;;;;;;5098530;28;20226;-63
2023/05/15 00:29:29;;;;;;;4.53;3.70;;;12.20;99.90;;;;;;5098196;28;20311;-62
2023/05/15 00:31:56;;;;;;;4.37;3.60;;;12.10;99.90;;;;;;5097956;28;20293;-63
2023/05/15 00:34:24;;;;;;;3.60;3.30;;;12.00;99.90;;;;;;5097834;28;20231;-63
2023/05/15 00:36:51;;;;;;;4.83;3.67;;;12.00;99.90;;;;;;5097886;28;20660;-63
2023/05/15 00:39:18;;;;;;;4.17;3.77;;;12.00;99.90;;;;;;5098067;28;20210;-62
2023/05/15 00:41:46;;;;;;;5.43;3.70;;;12.00;99.90;;;;;;5097232;28;20224;-62
2023/05/15 00:44:15;;;;;;;4.43;3.40;;;12.10;99.90;;;;;;5097296;28;20204;-63
2023/05/15 00:46:45;;;;;;;3.97;3.60;;;12.10;99.90;;;;;;5097970;28;20238;-62
2023/05/15 00:49:12;;;;;;;5.30;3.70;;;12.10;99.90;;;;;;5098265;28;20306;-63
2023/05/15 00:51:41;;;;;;;4.13;3.70;;;12.10;99.90;;;;;;5097710;28;20236;-63
2023/05/15 00:54:09;;;;;;;5.77;3.27;;;12.10;99.90;;;;;;5097653;28;20204;-61
2023/05/15 00:56:36;;;;;;;4.70;3.90;;;12.10;99.90;;;;;;5097571;28;20222;-61
2023/05/15 00:59:04;;;;;;;4.50;3.50;;;12.20;99.90;;;;;;5097896;28;20287;-61
2023/05/15 01:01:33;;;;;;;4.17;3.77;;;12.20;99.90;;;;;;5097317;28;20217;-62
2023/05/15 01:04:02;;;;;;;6.77;3.90;;;12.20;99.90;;;;;;5096129;28;20612;-62
2023/05/15 01:06:29;;;;;;;4.93;3.50;;;12.20;99.90;;;;;;5097694;28;20204;-61
2023/05/15 01:08:57;;;;;;;4.70;3.60;;;12.10;99.90;;;;;;5098196;28;20639;-61
2023/05/15 01:11:27;;;;;;;4.60;3.57;;;12.10;99.90;;;;;;5097164;28;20220;-61
2023/05/15 01:13:54;;;;;;;3.73;3.40;;;12.10;99.90;;;;;;5097591;28;20295;-62
2023/05/15 01:16:21;;;;;;;5.83;3.43;;;12.10;99.90;;;;;;5097575;28;20293;-63
2023/05/15 01:18:48;;;;;;;4.33;3.43;;;12.10;99.90;;;;;;5097471;28;20231;-61
2023/05/15 01:21:56;;;;;;;5.33;3.43;;;12.00;99.90;;;;;;5097156;28;20258;-63
2023/05/15 01:24:55;;;;;;;4.10;3.23;;;12.00;99.90;;;;;;5095669;28;20204;-62
2023/05/15 01:27:30;;;;;;;4.53;3.97;;;12.10;99.90;;;;;;5097155;28;20211;-62
2023/05/15 01:30:06;;;;;;;4.37;3.97;;;12.10;99.90;;;;;;5097072;28;20756;-61
2023/05/15 01:32:43;;;;;;;3.97;3.57;;;12.10;99.90;;;;;;5097242;28;20311;-62
2023/05/15 01:35:14;;;;;;;4.93;3.93;;;12.20;99.90;;;;;;5097305;28;20763;-63
2023/05/15 01:37:48;;;;;;;5.03;3.90;;;12.30;99.90;;;;;;5097695;28;20243;-62
2023/05/15 01:40:17;;;;;;;4.40;3.73;;;12.40;99.90;;;;;;5097572;28;20287;-62
2023/05/15 01:42:52;;;;;;;7.43;3.47;;;12.50;99.90;;;;;;5097351;28;20311;-62
2023/05/15 01:45:21;;;;;;;4.63;3.63;;;12.60;99.90;;;;;;5097054;28;20214;-62
2023/05/15 01:47:49;;;;;;;6.40;3.97;;;12.60;99.90;;;;;;5096775;28;20204;-62
2023/05/15 01:50:19;;;;;;;4.10;3.40;;;12.60;99.90;;;;;;5096978;28;20466;-62
2023/05/15 01:52:51;;;;;;;6.67;3.63;;;12.70;99.90;;;;;;5091476;22;20225;-71
2023/05/15 01:55:20;;;;;;;4.27;3.57;;;12.70;99.90;;;;;;5071953;28;20542;-71
2023/05/15 01:57:50;;;;;;;4.70;3.70;;;12.80;99.90;;;;;;5072285;28;20274;-70
2023/05/15 02:00:18;;;;;;;4.17;3.20;;;12.90;99.90;;;;;;5071723;28;20708;-70
2023/05/15 02:02:46;;;;;;;4.50;3.60;;;12.90;99.90;;;;;;5072810;28;20225;-70
2023/05/15 02:05:13;;;;;;;4.87;3.73;;;12.90;99.90;;;;;;5073578;28;20208;-70
2023/05/15 02:07:42;;;;;;;4.20;3.27;;;12.90;99.90;;;;;;5072847;28;20262;-70
2023/05/15 02:10:11;;;;;;;5.60;3.47;;;12.90;99.90;;;;;;5072212;28;20225;-70
2023/05/15 02:12:39;;;;;;;5.30;3.60;;;12.80;99.90;;;;;;5071923;28;20329;-69
2023/05/15 02:15:09;;;;;;;3.73;3.43;;;12.80;99.90;;;;;;5071001;28;20265;-70
2023/05/15 02:17:36;;;;;;;3.60;3.30;;;12.80;99.90;;;;;;5072144;28;20204;-69
2023/05/15 02:20:06;;;;;;;6.20;3.73;;;12.70;99.90;;;;;;5071328;28;20200;-70
2023/05/15 02:22:33;;;;;;;4.80;3.70;;;12.70;99.90;;;;;;5072256;28;20228;-70
2023/05/15 02:24:59;;;;;;;3.97;3.57;;;12.60;99.90;;;;;;5071602;28;20201;-70
2023/05/15 02:27:27;;;;;;;4.43;4.00;;;12.50;99.90;;;;;;5071673;28;20628;-70
2023/05/15 02:30:11;;;;;;;24.63;18.93;;;12.40;99.90;;;;;;5071482;28;20641;-72
2023/05/15 02:32:47;;;;;;;6.60;5.90;;;12.40;99.90;;;;;;5071457;28;20229;-69
2023/05/15 02:35:19;;;;;;;4.13;3.73;;;12.40;99.90;;;;;;5071496;28;20634;-69
2023/05/15 02:37:48;;;;;;;5.60;3.90;;;12.50;99.90;;;;;;5072281;28;20295;-70
2023/05/15 02:40:16;;;;;;;4.60;3.90;;;12.50;99.90;;;;;;5071517;28;20635;-69
2023/05/15 02:42:45;;;;;;;5.63;4.10;;;12.60;99.90;;;;;;5071379;28;20228;-69
2023/05/15 02:45:14;;;;;;;4.47;3.77;;;12.70;99.90;;;;;;5071288;28;20642;-69
2023/05/15 02:47:42;;;;;;;3.57;3.27;;;12.70;99.90;;;;;;5071381;28;20625;-69
2023/05/15 02:50:10;;;;;;;4.50;4.10;;;12.70;99.90;;;;;;5071194;28;20229;-69
2023/05/15 02:52:37;;;;;;;4.33;3.70;;;12.70;99.90;;;;;;5071176;28;20657;-69
2023/05/15 02:55:04;;;;;;;4.63;3.63;;;12.80;99.90;;;;;;5071301;28;20201;-70
2023/05/15 02:57:30;;;;;;;4.03;3.53;;;12.80;99.90;;;;;;5071321;28;20259;-70
2023/05/15 02:59:57;;;;;;;5.70;3.80;;;12.90;99.90;;;;;;5071208;28;20201;-70
2023/05/15 03:02:25;;;;;;;6.70;4.00;;;13.00;99.90;;;;;;5071222;28;20640;-70
2023/05/15 03:04:52;;;;;;;5.03;4.00;;;13.00;99.90;;;;;;5071100;28;20217;-70
2023/05/15 03:07:19;;;;;;;6.07;4.63;;;13.10;99.90;;;;;;5071331;28;20208;-70
2023/05/15 03:09:46;;;;;;;5.60;4.23;;;13.10;99.90;;;;;;5071215;28;20319;-70
2023/05/15 03:12:12;;;;;;;7.53;5.63;;;13.20;99.90;;;;;;5070839;28;20248;-70
2023/05/15 03:14:39;;;;;;;5.53;4.83;;;13.20;99.90;;;;;;5070986;28;20688;-70
2023/05/15 03:17:06;;;;;;;6.57;4.27;;;13.20;99.90;;;;;;5071248;28;20254;-70
2023/05/15 03:19:34;;;;;;;4.97;4.43;;;13.20;99.90;;;;;;5071097;28;20209;-70
2023/05/15 03:22:00;;;;;;;6.13;4.97;;;13.30;99.90;;;;;;5070907;28;20236;-70
2023/05/15 03:24:27;;;;;;;5.87;5.00;;;13.30;99.90;;;;;;5070897;28;20205;-70
2023/05/15 03:26:54;;;;;;;8.17;5.23;;;13.30;99.90;;;;;;5072944;28;20205;-70
2023/05/15 03:29:20;;;;;;;5.73;4.70;;;13.30;99.90;;;;;;5074600;28;20207;-70
2023/05/15 03:31:47;;;;;;;6.20;4.47;;;13.30;99.90;;;;;;5074388;28;20639;-70
2023/05/15 03:34:14;;;;;;;8.00;5.30;;;13.30;99.90;;;;;;5074888;28;20213;-70
2023/05/15 03:36:42;;;;;;;5.70;5.10;;;13.30;99.90;;;;;;5074767;28;20258;-70
2023/05/15 03:39:08;;;;;;;9.23;5.53;;;13.40;99.90;;;;;;5074541;28;20256;-70
2023/05/15 03:41:35;;;;;;;8.40;4.83;;;13.40;99.90;;;;;;5074276;28;20221;-70
2023/05/15 03:44:02;;;;;;;6.07;4.87;;;13.40;99.90;;;;;;5074860;28;20205;-70
2023/05/15 03:46:28;;;;;;;5.90;4.80;;;13.40;99.90;;;;;;5074646;28;20205;-70
2023/05/15 03:48:55;;;;;;;6.27;5.53;;;13.40;99.90;;;;;;5074687;28;20208;-71
2023/05/15 03:51:23;;;;;;;5.73;5.23;;;13.40;99.90;;;;;;5074039;28;20229;-71
2023/05/15 03:53:51;;;;;;;8.37;5.47;;;13.30;99.90;;;;;;5074508;28;20205;-70
2023/05/15 03:56:18;;;;;;;5.93;5.33;;;13.30;99.90;;;;;;5074201;28;20209;-71
2023/05/15 03:58:44;;;;;;;5.40;4.60;;;13.30;99.90;;;;;;5074627;28;20209;-70
2023/05/15 04:01:11;;;;;;;5.33;4.83;;;13.30;99.90;;;;;;5073898;28;20232;-70
2023/05/15 04:03:38;;;;;;;7.20;5.13;;;13.30;99.90;;;;;;5074011;28;20216;-70
2023/05/15 04:06:05;;;;;;;6.30;5.37;;;13.30;99.90;;;;;;5073891;28;20256;-70
2023/05/15 04:08:32;;;;;;;5.40;4.83;;;13.30;99.90;;;;;;5073983;28;20580;-71
2023/05/15 04:11:00;;;;;;;6.47;5.77;;;13.30;99.90;;;;;;5073755;28;20264;-71
2023/05/15 04:13:27;;;;;;;5.40;4.67;;;13.40;99.90;;;;;;5074000;28;20258;-70
2023/05/15 04:15:54;;;;;;;5.53;5.03;;;13.50;99.90;;;;;;5073706;28;20201;-70
2023/05/15 04:18:20;;;;;;;7.80;5.00;;;13.40;99.90;;;;;;5073853;28;20259;-70
2023/05/15 04:20:47;;;;;;;10.03;5.63;;;13.50;99.90;;;;;;5073598;28;20397;-70
2023/05/15 04:23:14;;;;;;;6.00;4.90;;;13.50;99.90;;;;;;5073774;28;20251;-70
2023/05/15 04:25:45;;;;;;;6.60;5.67;;;13.60;99.90;;;;;;5073727;28;20688;-70
2023/05/15 04:28:13;;;;;;;9.67;6.20;;;13.70;99.90;;;;;;5074271;28;20255;-70
2023/05/15 04:30:40;;;;;;;6.70;5.23;;;13.80;99.90;;;;;;5073424;28;20692;-70
2023/05/15 04:33:07;;;;;;;7.00;5.60;;;13.80;99.90;;;;;;5073722;28;20224;-70
2023/05/15 04:35:34;;;;;;;5.90;5.30;;;13.90;99.90;;;;;;5074168;28;20254;-70
2023/05/15 04:38:01;;;;;;;6.00;5.40;;;14.00;99.90;;;;;;5073158;28;20232;-72
2023/05/15 04:40:28;;;;;;;12.10;8.67;;;14.10;99.90;;;;;;5073173;28;20442;-72
2023/05/15 04:42:55;;;;;;;7.70;6.80;;;14.20;99.90;;;;;;5073000;28;20224;-70
2023/05/15 04:45:24;;;;;;;7.80;5.27;;;14.40;99.90;;;;;;5073117;28;20231;-70
2023/05/15 04:47:51;;;;;;;5.60;5.00;;;14.50;99.90;;;;;;5073035;28;20680;-70
2023/05/15 04:50:17;;;;;;;8.60;5.37;;;14.60;99.90;;;;;;5072454;28;20711;-70
2023/05/15 04:52:44;;;;;;;5.27;4.77;;;14.70;99.90;;;;;;5072572;28;20237;-72
2023/05/15 04:55:11;;;;;;;5.37;4.57;;;14.70;99.90;;;;;;5072603;28;20243;-69
2023/05/15 04:57:38;;;;;;;6.53;4.97;;;14.90;99.90;;;;;;5072818;28;20201;-70
2023/05/15 05:00:09;;;;;;;5.67;4.50;;;15.00;99.90;;;;;;5072675;28;20212;-70
2023/05/15 05:02:37;;;;;;;4.73;4.33;;;15.20;99.90;;;;;;5072289;28;20224;-70
2023/05/15 05:05:04;;;;;;;4.80;4.30;;;15.30;99.90;;;;;;5072374;28;20213;-71
2023/05/15 05:07:31;;;;;;;5.93;4.70;;;15.40;99.90;;;;;;5072548;28;20590;-71
2023/05/15 05:09:58;;;;;;;5.47;4.47;;;15.60;99.90;;;;;;5072666;28;20212;-72
2023/05/15 05:12:25;;;;;;;6.20;4.43;;;15.70;99.90;;;;;;5072251;28;20240;-71
2023/05/15 05:14:51;;;;;;;5.27;4.23;;;15.60;99.90;;;;;;5072498;28;20283;-70
2023/05/15 05:17:18;;;;;;;6.83;4.30;;;15.60;99.90;;;;;;5072059;28;20233;-70
2023/05/15 05:19:46;;;;;;;6.70;4.80;;;15.60;99.90;;;;;;5072267;28;20213;-71
2023/05/15 05:22:13;;;;;;;12.27;9.17;;;15.70;99.90;;;;;;5072055;28;20224;-71
2023/05/15 05:24:39;;;;;;;8.77;5.93;;;15.80;99.90;;;;;;5072461;28;20204;-71
2023/05/15 05:27:06;;;;;;;4.80;4.40;;;16.10;99.90;;;;;;5072267;28;20209;-71
2023/05/15 05:29:33;;;;;;;9.32;4.38;;;16.50;99.90;;;;;;5072106;28;20208;-71
2023/05/15 05:32:00;;;;;;;9.87;7.10;;;16.70;99.90;;;;;;5071524;28;20228;-71
2023/05/15 05:34:27;;;;;;;12.10;8.57;;;16.80;99.90;;;;;;5071984;28;20677;-72
2023/05/15 05:36:55;;;;;;;8.38;5.47;;;17.00;99.90;;;;;;5071954;28;20274;-71
2023/05/15 05:39:21;;;;;;;8.13;5.07;;;17.30;99.90;;;;;;5072203;28;20212;-72
2023/05/15 05:41:48;;;;;;;5.40;4.78;;;17.80;99.90;;;;;;5071599;28;20221;-71
2023/05/15 05:44:15;;;;;;;9.70;6.13;;;18.90;99.90;;;;;;5072233;28;20254;-73
2023/05/15 05:46:44;;;;;;;63.33;38.92;;;19.50;99.90;;;;;;5072353;28;20286;-73
2023/05/15 05:49:10;;;;;;;5.63;4.68;;;20.20;99.90;;;;;;5072056;28;20201;-67
2023/05/15 05:51:37;;;;;;;4.28;3.88;;;21.30;99.90;;;;;;5071570;28;20236;-68
2023/05/15 05:54:06;;;;;;;5.60;3.67;;;22.40;99.90;;;;;;5071889;28;20625;-63
2023/05/15 05:56:32;;;;;;;7.43;4.68;;;23.00;99.90;;;;;;5072396;28;20292;-63
2023/05/15 05:59:00;;;;;;;4.63;3.78;;;23.30;99.90;;;;;;5071659;28;20204;-63
2023/05/15 06:01:27;;;;;;;7.47;3.95;;;23.60;99.90;;;;;;5071452;28;20252;-62
2023/05/15 06:03:54;;;;;;;4.63;3.60;;;24.00;99.90;;;;;;5071706;28;20204;-64
2023/05/15 06:06:21;;;;;;;7.50;3.70;;;25.00;99.90;;;;;;5071475;28;20278;-63
2023/05/15 06:08:47;;;;;;;4.50;3.58;;;25.80;99.90;;;;;;5071636;28;20211;-62
2023/05/15 06:11:16;;;;;;;9.52;3.65;;;26.40;99.90;;;;;;5071180;28;20319;-64
2023/05/15 06:13:43;;;;;;;4.00;3.60;;;26.30;99.80;;;;;;5071659;28;20212;-63
2023/05/15 06:16:10;;;;;;;4.20;3.80;;;27.10;98.70;;;;;;5071680;28;20293;-65
2023/05/15 06:18:36;;;;;;;3.85;3.50;;;27.70;97.00;;;;;;5071701;28;20300;-64
2023/05/15 06:21:03;;;;;;;4.10;3.70;;;28.20;96.10;;;;;;5071508;28;20204;-63
2023/05/15 06:23:30;;;;;;;3.97;3.58;;;28.50;94.70;;;;;;5071415;28;20555;-63
2023/05/15 06:25:57;;;;;;;4.03;3.63;;;28.60;94.80;;;;;;5071378;28;20212;-63
2023/05/15 06:28:25;;;;;;;3.97;3.53;;;29.30;93.00;;;;;;5071765;28;20212;-63
2023/05/15 06:30:52;;;;;;;3.70;3.40;;;30.00;91.80;;;;;;5071293;28;20570;-63
2023/05/15 06:33:20;;;;;;;3.50;3.20;;;30.70;89.70;;;;;;5071537;28;20209;-62
2023/05/15 06:35:47;;;;;;;4.72;3.60;;;31.70;86.50;;;;;;5071171;28;20212;-62
2023/05/15 06:38:14;;;;;;;3.90;3.22;;;32.30;82.20;;;;;;5071326;28;20300;-63
2023/05/15 06:40:40;;;;;;;4.28;3.85;;;32.40;79.60;;;;;;5071157;28;20627;-63
2023/05/15 06:43:07;;;;;;;3.60;3.30;;;33.00;76.10;;;;;;5071345;28;20282;-62
2023/05/15 06:45:35;;;;;;;4.15;3.63;;;32.60;74.50;;;;;;5071415;28;20205;-63
2023/05/15 06:48:02;;;;;;;3.78;3.38;;;32.60;75.50;;;;;;5071133;28;20200;-62
2023/05/15 06:50:29;;;;;;;3.80;3.50;;;33.00;74.20;;;;;;5070868;28;20270;-64
2023/05/15 06:52:56;;;;;;;4.88;3.22;;;33.70;71.10;;;;;;5070996;28;20233;-62
2023/05/15 06:55:22;;;;;;;3.95;3.38;;;34.40;68.60;;;;;;5070932;28;20746;-62
2023/05/15 06:57:49;;;;;;;4.60;3.25;;;34.90;66.30;;;;;;5071614;28;20225;-66
2023/05/15 07:00:16;;;;;;;4.88;3.45;;;35.50;64.10;;;;;;5077812;28;20215;-65
2023/05/15 07:02:44;;;;;;;5.07;3.70;;;34.80;64.10;;;;;;5093652;28;20220;-64
2023/05/15 07:05:11;;;;;;;3.72;3.42;;;33.90;65.80;;;;;;5095657;28;20557;-63
2023/05/15 07:07:38;;;;;;;4.18;3.30;;;34.30;65.10;;;;;;5094686;28;20211;-63
2023/05/15 07:10:05;;;;;;;3.95;3.33;;;34.40;63.30;;;;;;5094553;28;20250;-63
2023/05/15 07:12:33;;;;;;;4.25;3.10;;;33.40;64.30;;;;;;5094553;28;20232;-64
2023/05/15 07:14:59;;;;;;;3.58;3.25;;;32.00;67.10;;;;;;5095035;28;20204;-63
2023/05/15 07:17:26;;;;;;;3.38;3.03;;;31.40;69.00;;;;;;5094904;28;20200;-64
2023/05/15 07:19:54;;;;;;;4.05;3.35;;;32.10;68.70;;;;;;5094853;28;20207;-64
2023/05/15 07:22:21;;;;;;;3.63;3.15;;;33.70;65.30;;;;;;5094068;28;20227;-64
2023/05/15 07:24:47;;;;;;;5.95;4.70;;;34.70;62.30;;;;;;5094836;28;20695;-64
2023/05/15 07:27:14;;;;;;;6.10;3.67;;;34.70;61.70;;;;;;5094709;28;20264;-67
2023/05/15 07:29:41;;;;;;;3.55;3.25;;;34.00;62.00;;;;;;5094729;28;20339;-63
2023/05/15 07:32:08;;;;;;;4.65;3.50;;;33.90;62.40;;;;;;5094412;28;20220;-63
2023/05/15 07:34:34;;;;;;;4.00;3.70;;;34.10;61.10;;;;;;5094282;28;20234;-62
2023/05/15 07:37:02;;;;;;;3.83;3.40;;;33.80;62.00;;;;;;5094269;28;20261;-63
2023/05/15 07:39:29;;;;;;;3.55;3.25;;;34.20;61.10;;;;;;5094642;28;20211;-68
2023/05/15 07:41:56;;;;;;;3.70;3.28;;;34.10;60.70;;;;;;5094056;28;20228;-66
2023/05/15 07:44:22;;;;;;;4.38;2.72;;;33.20;61.00;;;;;;5094178;28;20290;-64
2023/05/15 07:46:49;;;;;;;3.88;3.10;;;32.20;64.60;;;;;;5094047;28;20208;-67
2023/05/15 07:49:16;;;;;;;3.47;3.15;;;33.00;63.20;;;;;;5094267;28;20212;-66
2023/05/15 07:51:43;;;;;;;4.03;3.13;;;33.00;62.50;;;;;;5111464;22;20735;-62
2023/05/15 07:54:11;;;;;;;3.53;3.20;;;32.50;62.90;;;;;;5056323;28;20210;-60
2023/05/15 07:56:38;;;;;;;3.80;3.50;;;32.20;63.60;;;;;;5056866;28;20212;-60
2023/05/15 07:59:05;;;;;;;3.80;3.38;;;31.60;65.00;;;;;;5056785;28;20201;-59
2023/05/15 08:01:32;;;;;;;6.13;3.72;;;31.60;65.40;;;;;;5055913;28;20226;-60
2023/05/15 08:03:59;;;;;;;3.28;2.88;;;31.80;64.80;;;;;;5057148;28;20300;-60
2023/05/15 08:06:26;;;;;;;5.65;3.90;;;31.80;64.80;;;;;;5056360;28;20293;-61
2023/05/15 08:08:53;;;;;;;3.78;3.40;;;31.40;64.50;;;;;;5056764;28;20304;-61
2023/05/15 08:11:21;;;;;;;7.65;4.00;;;31.10;65.30;;;;;;5057448;28;20259;-60
2023/05/15 08:13:48;;;;;;;3.92;3.50;;;30.50;66.60;;;;;;5055242;28;20205;-59
2023/05/15 08:16:14;;;;;;;3.35;2.92;;;30.40;67.50;;;;;;5056090;28;20292;-60
2023/05/15 08:18:41;;;;;;;6.60;3.28;;;29.90;68.10;;;;;;5056001;28;20205;-59
2023/05/15 08:21:08;;;;;;;3.78;3.20;;;29.80;68.50;;;;;;5054938;28;20702;-58
2023/05/15 08:23:35;;;;;;;3.67;3.17;;;29.60;69.30;;;;;;5049577;28;20344;-59
2023/05/15 08:26:02;;;;;;;4.30;3.00;;;30.20;67.40;;;;;;5052441;28;20298;-58
2023/05/15 08:28:30;;;;;;;3.80;3.30;;;29.80;68.00;;;;;;5053738;28;20396;-58
2023/05/15 08:30:57;;;;;;;4.32;3.00;;;29.30;68.90;;;;;;5053937;28;20206;-61
2023/05/15 08:33:24;;;;;;;3.75;3.30;;;28.20;71.70;;;;;;5056565;28;20329;-60
2023/05/15 08:35:51;;;;;;;4.55;2.30;;;27.00;74.60;;;;;;5054798;28;20208;-61
2023/05/15 08:38:18;;;;;;;4.25;2.75;;;26.40;73.20;;;;;;5056001;28;20210;-61
2023/05/15 08:40:47;;;;;;;3.33;2.50;;;25.40;76.10;;;;;;5057926;28;20214;-56
2023/05/15 08:43:17;;;;;;;2.65;2.45;;;24.60;77.90;;;;;;5053818;28;20257;-56
2023/05/15 08:45:46;;;;;;;2.42;2.22;;;24.10;79.90;;;;;;5053505;28;20288;-56
2023/05/15 08:48:15;;;;;;;3.08;2.60;;;23.70;79.70;;;;;;5053608;28;20231;-56
2023/05/15 08:50:43;;;;;;;3.10;2.80;;;23.00;83.70;;;;;;5053332;28;20215;-55
2023/05/15 08:53:12;;;;;;;2.47;2.25;;;22.40;85.80;;;;;;5053317;28;20229;-56
2023/05/15 08:55:39;;;;;;;4.68;2.65;;;21.90;86.20;;;;;;5053851;28;20217;-56
2023/05/15 08:58:06;;;;;;;4.55;2.90;;;21.70;88.20;;;;;;5054189;28;20212;-56
2023/05/15 09:00:33;;;;;;;3.42;2.83;;;21.90;90.30;;;;;;5054291;28;20213;-56
2023/05/15 09:03:02;;;;;;;3.50;2.80;;;22.10;90.40;;;;;;5053335;28;20225;-56
2023/05/15 09:05:30;;;;;;;5.60;3.30;;;22.00;90.70;;;;;;5053459;28;20206;-56
2023/05/15 09:07:58;;;;;;;4.60;2.72;;;21.80;91.90;;;;;;5053668;28;20216;-56
2023/05/15 09:10:25;;;;;;;4.18;2.80;;;21.90;92.10;;;;;;5053137;28;20205;-56
2023/05/15 09:12:53;;;;;;;3.13;2.75;;;22.30;91.90;;;;;;5053105;28;20234;-56
2023/05/15 09:15:23;;;;;;;3.33;2.60;;;22.50;92.10;;;;;;5053386;28;20210;-56
2023/05/15 09:17:50;;;;;;;4.00;2.53;;;22.40;91.80;;;;;;5053372;28;20206;-56
2023/05/15 09:20:32;;;;;;;3.50;2.60;;;22.00;92.30;;;;;;5053535;28;20292;-56
2023/05/15 09:23:01;;;;;;;4.38;2.15;;;21.40;92.60;;;;;;5053222;28;20229;-56
2023/05/15 09:25:37;;;;;;;4.00;2.78;;;21.10;90.50;;;;;;5052739;28;20674;-56
2023/05/15 09:28:04;;;;;;;3.00;2.47;;;20.80;91.50;;;;;;5053487;28;20323;-56
2023/05/15 09:30:31;;;;;;;2.92;2.50;;;20.80;92.00;;;;;;5053675;28;20209;-58
2023/05/15 09:33:02;;;;;;;3.22;2.80;;;20.80;93.00;;;;;;5053496;28;20605;-58
2023/05/15 09:35:34;;;;;;;3.50;2.60;;;20.90;93.50;;;;;;5053352;28;20211;-56
2023/05/15 09:38:04;;;;;;;2.92;2.60;;;20.80;94.20;;;;;;5053141;28;20202;-56
2023/05/15 09:40:32;;;;;;;3.13;2.50;;;21.00;94.00;;;;;;5052692;28;20207;-56
2023/05/15 09:42:59;;;;;;;4.80;2.67;;;21.40;93.20;;;;;;5052834;28;20316;-56
2023/05/15 09:45:28;;;;;;;3.40;2.65;;;21.80;92.50;;;;;;5052664;28;20630;-57
2023/05/15 09:47:55;;;;;;;3.15;2.65;;;22.30;91.40;;;;;;5053784;28;20446;-57
2023/05/15 09:50:24;;;;;;;2.92;2.58;;;22.60;91.50;;;;;;5071274;28;20255;-57
2023/05/15 09:52:52;;;;;;;3.20;2.70;;;22.90;91.30;;;;;;5071567;28;20229;-56
2023/05/15 09:55:21;;;;;;;3.53;2.83;;;22.80;91.10;;;;;;5072689;28;20212;-57
2023/05/15 09:58:06;;;;;;;4.03;2.40;;;22.90;91.20;;;;;;5072137;28;20216;-57
2023/05/15 10:00:33;;;;;;;3.00;2.63;;;23.00;90.30;;;;;;5072462;28;20213;-57
2023/05/15 10:03:02;;;;;;;2.53;2.25;;;23.20;90.50;;;;;;5071770;28;20225;-56
2023/05/15 10:05:29;;;;;;;4.88;2.45;;;23.10;89.90;;;;;;5071758;28;20205;-60
2023/05/15 10:07:58;;;;;;;3.13;2.50;;;22.80;89.30;;;;;;5072029;28;20216;-56
2023/05/15 10:10:26;;;;;;;2.85;2.58;;;22.30;90.50;;;;;;5072092;28;20571;-56
2023/05/15 10:12:54;;;;;;;3.72;2.88;;;22.10;91.30;;;;;;5071957;28;20322;-58
2023/05/15 10:15:22;;;;;;;4.43;2.53;;;22.20;91.50;;;;;;5072114;28;20235;-56
2023/05/15 10:17:50;;;;;;;7.78;2.70;;;22.40;91.70;;;;;;5072394;28;20664;-56
2023/05/15 10:20:19;;;;;;;3.17;2.42;;;22.80;91.10;;;;;;5072422;28;20205;-57
2023/05/15 10:22:47;;;;;;;3.17;2.20;;;23.40;89.60;;;;;;5074932;28;20223;-62
2023/05/15 10:25:25;;;;;;;3.67;2.42;;;23.70;82.80;;;;;;5064144;28;20209;-62
2023/05/15 10:27:52;;;;;;;3.10;2.80;;;23.90;85.70;;;;;;5052090;28;20205;-60
2023/05/15 10:30:19;;;;;;;2.80;2.50;;;23.90;86.00;;;;;;5057534;28;20217;-61
2023/05/15 10:32:48;;;;;;;5.68;3.70;;;23.90;85.70;;;;;;5057639;28;20235;-62
2023/05/15 10:35:16;;;;;;;8.82;4.00;;;23.90;92.60;;;;;;5068420;28;20236;-59
2023/05/15 10:37:45;;;;;;;5.50;3.50;;;23.50;99.90;;;;;;5062072;28;20201;-60
2023/05/15 10:40:14;;;;;;;4.03;3.35;;;22.60;99.90;;;;;;5056414;28;20203;-59
2023/05/15 10:42:45;;;;;;;5.75;3.20;;;21.80;99.90;;;;;;5056366;28;20643;-59
2023/05/15 10:45:12;;;;;;;5.05;3.50;;;21.30;99.90;;;;;;5057788;28;20599;-60
2023/05/15 10:47:41;;;;;;;3.42;3.13;;;21.10;99.90;;;;;;5057496;28;20263;-62
2023/05/15 10:50:08;;;;;;;3.28;2.97;;;21.00;99.90;;;;;;5059683;28;20206;-59
2023/05/15 10:52:37;;;;;;;6.32;3.10;;;21.10;99.90;;;;;;5057842;28;20576;-60
2023/05/15 10:55:07;;;;;;;3.33;3.00;;;21.20;99.90;;;;;;5059982;28;20225;-61
2023/05/15 10:57:35;;;;;;;8.40;2.97;;;21.00;99.90;;;;;;5059475;28;20267;-58
2023/05/15 11:00:04;;;;;;;4.50;3.33;;;20.90;99.90;;;;;;5060105;28;20251;-60
2023/05/15 11:02:37;;;;;;;6.10;5.15;;;20.80;99.90;;;;;;5058679;28;20450;-62
2023/05/15 11:05:05;;;;;;;4.30;2.97;;;20.80;99.90;;;;;;5056070;28;20213;-58
2023/05/15 11:07:32;;;;;;;3.30;2.60;;;21.00;99.90;;;;;;5055821;28;20213;-58
2023/05/15 11:09:59;;;;;;;4.78;2.75;;;20.90;99.90;;;;;;5055823;28;20267;-58
2023/05/15 11:12:46;;;;;;;6.90;3.15;;;20.90;99.90;;;;;;5055485;28;20225;-58
2023/05/15 11:15:21;;;;;;;4.63;2.67;;;21.10;99.10;;;;;;5055558;28;20232;-59
2023/05/15 11:18:04;;;;;;;2.97;2.50;;;21.20;97.70;;;;;;5056103;28;20213;-59
2023/05/15 11:20:33;;;;;;;4.30;2.40;;;21.20;96.70;;;;;;5055889;28;20620;-61
2023/05/15 11:23:00;;;;;;;2.97;2.22;;;21.10;94.60;;;;;;5055923;28;20437;-59
2023/05/15 11:25:29;;;;;;;2.90;2.40;;;21.10;95.50;;;;;;5056445;28;20236;-59
2023/05/15 11:27:56;;;;;;;2.60;2.40;;;21.30;96.00;;;;;;5055662;28;20673;-59
2023/05/15 11:30:35;;;;;;;5.70;2.55;;;21.60;96.00;;;;;;5055359;28;20669;-58
2023/05/15 11:33:07;;;;;;;4.25;2.25;;;22.00;93.90;;;;;;5055108;28;20233;-59
2023/05/15 11:35:35;;;;;;;3.45;2.22;;;22.30;93.70;;;;;;5055637;28;20205;-59
2023/05/15 11:38:04;;;;;;;3.78;2.25;;;22.80;93.80;;;;;;5055568;28;20213;-59
2023/05/15 11:40:32;;;;;;;3.10;2.53;;;23.20;91.90;;;;;;5055455;28;20589;-58
2023/05/15 11:43:04;;;;;;;3.13;2.20;;;23.30;92.10;;;;;;5055238;28;20229;-58
2023/05/15 11:45:35;;;;;;;1.23;1.13;;;23.50;91.50;;;;;;5055496;28;20237;-58
2023/05/15 11:48:03;;;;;;;1.25;1.15;;;23.30;85.40;;;;;;5054637;28;20244;-58
2023/05/15 11:50:32;;;;;;;3.08;1.20;;;23.00;87.20;;;;;;5054956;28;20557;-59
2023/05/15 11:53:02;;;;;;;2.83;1.00;;;22.90;85.80;;;;;;5054232;28;20260;-58
2023/05/15 11:55:32;;;;;;;2.50;1.48;;;22.50;85.30;;;;;;5054851;28;20215;-59
2023/05/15 11:57:58;;;;;;;1.55;1.45;;;22.10;88.50;;;;;;5054711;28;20212;-59
2023/05/15 12:00:25;;;;;;;2.03;1.40;;;21.80;86.60;;;;;;5054629;28;20207;-58
2023/05/15 12:02:53;;;;;;;1.23;1.13;;;21.30;87.80;;;;;;5054540;28;20224;-59
2023/05/15 12:05:20;;;;;;;1.40;1.20;;;21.20;91.10;;;;;;5054557;28;20237;-59
2023/05/15 12:07:47;;;;;;;1.42;1.33;;;21.00;90.60;;;;;;5054550;28;20205;-58
2023/05/15 12:10:14;;;;;;;2.67;1.50;;;21.00;90.40;;;;;;5054539;28;20205;-59
2023/05/15 12:12:42;;;;;;;1.60;1.30;;;20.90;90.60;;;;;;5054363;28;20282;-58
2023/05/15 12:15:10;;;;;;;2.17;1.60;;;20.90;90.00;;;;;;5054853;28;20213;-59
2023/05/15 12:17:38;;;;;;;2.03;1.60;;;20.90;90.30;;;;;;5054687;28;20570;-59
2023/05/15 12:20:09;;;;;;;3.05;1.70;;;20.90;90.70;;;;;;5054552;28;20210;-59
2023/05/15 12:22:37;;;;;;;2.10;1.67;;;21.00;91.00;;;;;;5054361;28;20672;-58
2023/05/15 12:25:05;;;;;;;1.90;1.60;;;21.30;90.70;;;;;;5054480;28;20208;-58
2023/05/15 12:27:32;;;;;;;1.73;1.63;;;21.40;89.80;;;;;;5053925;28;20209;-58
2023/05/15 12:29:59;;;;;;;2.55;1.40;;;21.40;88.90;;;;;;5054092;28;20233;-58
2023/05/15 12:32:26;;;;;;;2.17;1.70;;;21.50;88.80;;;;;;5053786;28;20709;-59
2023/05/15 12:34:53;;;;;;;3.47;1.50;;;21.40;90.00;;;;;;5053667;28;20665;-59
2023/05/15 12:37:22;;;;;;;1.70;1.40;;;21.40;90.60;;;;;;5054298;28;20201;-58
2023/05/15 12:39:54;;;;;;;2.45;1.52;;;21.50;88.00;;;;;;5054587;28;20298;-58
2023/05/15 12:42:21;;;;;;;1.52;1.42;;;21.70;88.00;;;;;;5054226;28;20251;-58
2023/05/15 12:44:51;;;;;;;2.38;1.40;;;21.90;87.80;;;;;;5054100;28;20213;-59
2023/05/15 12:47:22;;;;;;;2.10;1.52;;;21.90;84.90;;;;;;5054139;28;20210;-59
2023/05/15 12:49:49;;;;;;;1.20;1.10;;;21.80;85.10;;;;;;5054060;28;20213;-59